sensor_id;sensor_type;location;lat;lon;timestamp;P1;durP1;ratioP1;P2;durP2;ratioP2
65835;SDS011;52595;51.608;7.216;2023-06-22T00:01:27;9.70;;;6.50;;
65835;SDS011;52595;51.608;7.216;2023-06-22T00:03:52;8.95;;;6.65;;
65835;SDS011;52595;51.608;7.216;2023-06-22T00:06:18;9.45;;;7.20;;
65835;SDS011;52595;51.608;7.216;2023-06-22T00:08:43;10.38;;;7.70;;
65835;SDS011;52595;51.608;7.216;2023-06-22T00:11:08;10.30;;;6.95;;
65835;SDS011;52595;51.608;7.216;2023-06-22T00:13:34;13.23;;;7.60;;
65835;SDS011;52595;51.608;7.216;2023-06-22T00:15:59;9.52;;;6.95;;
65835;SDS011;52595;51.608;7.216;2023-06-22T00:18:25;10.00;;;6.90;;
65835;SDS011;52595;51.608;7.216;2023-06-22T00:20:53;11.07;;;7.45;;
65835;SDS011;52595;51.608;7.216;2023-06-22T00:23:22;12.00;;;7.57;;
65835;SDS011;52595;51.608;7.216;2023-06-22T00:25:48;12.73;;;7.53;;
65835;SDS011;52595;51.608;7.216;2023-06-22T00:28:14;9.23;;;7.35;;
65835;SDS011;52595;51.608;7.216;2023-06-22T00:30:40;11.52;;;7.55;;
65835;SDS011;52595;51.608;7.216;2023-06-22T00:33:05;14.55;;;8.25;;
65835;SDS011;52595;51.608;7.216;2023-06-22T00:35:32;12.45;;;8.23;;
65835;SDS011;52595;51.608;7.216;2023-06-22T00:37:59;13.93;;;9.00;;
65835;SDS011;52595;51.608;7.216;2023-06-22T00:40:29;11.82;;;8.02;;
65835;SDS011;52595;51.608;7.216;2023-06-22T00:42:55;14.15;;;7.80;;
65835;SDS011;52595;51.608;7.216;2023-06-22T00:45:21;12.70;;;8.48;;
65835;SDS011;52595;51.608;7.216;2023-06-22T00:47:48;11.40;;;8.05;;
65835;SDS011;52595;51.608;7.216;2023-06-22T00:50:17;13.63;;;8.45;;
65835;SDS011;52595;51.608;7.216;2023-06-22T00:52:46;12.48;;;8.15;;
65835;SDS011;52595;51.608;7.216;2023-06-22T00:55:21;9.57;;;7.50;;
65835;SDS011;52595;51.608;7.216;2023-06-22T00:57:47;10.45;;;7.90;;
65835;SDS011;52595;51.608;7.216;2023-06-22T01:00:13;12.65;;;7.95;;
65835;SDS011;52595;51.608;7.216;2023-06-22T01:02:41;12.13;;;8.95;;
65835;SDS011;52595;51.608;7.216;2023-06-22T01:05:09;13.63;;;8.75;;
65835;SDS011;52595;51.608;7.216;2023-06-22T01:07:35;12.15;;;9.27;;
65835;SDS011;52595;51.608;7.216;2023-06-22T01:10:07;11.38;;;9.05;;
65835;SDS011;52595;51.608;7.216;2023-06-22T01:12:40;11.82;;;9.02;;
65835;SDS011;52595;51.608;7.216;2023-06-22T01:15:11;9.98;;;8.02;;
65835;SDS011;52595;51.608;7.216;2023-06-22T01:17:44;12.82;;;9.35;;
65835;SDS011;52595;51.608;7.216;2023-06-22T01:20:13;11.10;;;8.88;;
65835;SDS011;52595;51.608;7.216;2023-06-22T01:22:46;14.18;;;9.38;;
65835;SDS011;52595;51.608;7.216;2023-06-22T01:25:19;12.18;;;8.45;;
65835;SDS011;52595;51.608;7.216;2023-06-22T01:27:53;12.27;;;9.43;;
65835;SDS011;52595;51.608;7.216;2023-06-22T01:30:26;12.63;;;10.27;;
65835;SDS011;52595;51.608;7.216;2023-06-22T01:32:54;12.88;;;10.07;;
65835;SDS011;52595;51.608;7.216;2023-06-22T01:35:22;12.13;;;9.88;;
65835;SDS011;52595;51.608;7.216;2023-06-22T01:37:48;13.00;;;8.95;;
65835;SDS011;52595;51.608;7.216;2023-06-22T01:40:15;14.43;;;9.95;;
65835;SDS011;52595;51.608;7.216;2023-06-22T01:42:41;14.80;;;9.98;;
65835;SDS011;52595;51.608;7.216;2023-06-22T01:45:08;12.32;;;9.52;;
65835;SDS011;52595;51.608;7.216;2023-06-22T01:47:36;12.27;;;10.43;;
65835;SDS011;52595;51.608;7.216;2023-06-22T01:50:01;14.75;;;10.38;;
65835;SDS011;52595;51.608;7.216;2023-06-22T01:52:27;13.80;;;11.35;;
65835;SDS011;52595;51.608;7.216;2023-06-22T01:54:52;13.55;;;10.57;;
65835;SDS011;52595;51.608;7.216;2023-06-22T01:57:18;15.35;;;11.23;;
65835;SDS011;52595;51.608;7.216;2023-06-22T02:02:32;14.77;;;11.30;;
65835;SDS011;52595;51.608;7.216;2023-06-22T02:05:05;13.93;;;11.25;;
65835;SDS011;52595;51.608;7.216;2023-06-22T02:07:38;15.98;;;12.43;;
65835;SDS011;52595;51.608;7.216;2023-06-22T02:10:07;16.50;;;12.70;;
65835;SDS011;52595;51.608;7.216;2023-06-22T02:12:34;16.70;;;12.52;;
65835;SDS011;52595;51.608;7.216;2023-06-22T02:15:01;17.75;;;12.48;;
65835;SDS011;52595;51.608;7.216;2023-06-22T02:17:26;16.05;;;11.98;;
65835;SDS011;52595;51.608;7.216;2023-06-22T02:19:52;15.88;;;12.50;;
65835;SDS011;52595;51.608;7.216;2023-06-22T02:22:17;15.10;;;12.77;;
65835;SDS011;52595;51.608;7.216;2023-06-22T02:24:43;14.82;;;12.35;;
65835;SDS011;52595;51.608;7.216;2023-06-22T02:27:08;17.75;;;13.25;;
65835;SDS011;52595;51.608;7.216;2023-06-22T02:29:35;14.90;;;11.95;;
65835;SDS011;52595;51.608;7.216;2023-06-22T02:32:00;15.60;;;11.70;;
65835;SDS011;52595;51.608;7.216;2023-06-22T02:34:26;16.92;;;12.50;;
65835;SDS011;52595;51.608;7.216;2023-06-22T02:36:51;15.00;;;12.35;;
65835;SDS011;52595;51.608;7.216;2023-06-22T02:39:20;15.00;;;12.95;;
65835;SDS011;52595;51.608;7.216;2023-06-22T02:41:47;15.57;;;13.38;;
65835;SDS011;52595;51.608;7.216;2023-06-22T02:44:13;15.13;;;12.80;;
65835;SDS011;52595;51.608;7.216;2023-06-22T02:46:38;17.55;;;13.65;;
65835;SDS011;52595;51.608;7.216;2023-06-22T02:49:04;15.48;;;13.65;;
65835;SDS011;52595;51.608;7.216;2023-06-22T02:51:30;17.35;;;13.50;;
65835;SDS011;52595;51.608;7.216;2023-06-22T02:53:58;16.42;;;13.30;;
65835;SDS011;52595;51.608;7.216;2023-06-22T02:56:24;17.08;;;13.10;;
65835;SDS011;52595;51.608;7.216;2023-06-22T02:58:49;16.80;;;13.40;;
65835;SDS011;52595;51.608;7.216;2023-06-22T03:01:15;17.08;;;13.35;;
65835;SDS011;52595;51.608;7.216;2023-06-22T03:03:40;18.48;;;14.27;;
65835;SDS011;52595;51.608;7.216;2023-06-22T03:06:06;16.65;;;13.18;;
65835;SDS011;52595;51.608;7.216;2023-06-22T03:08:31;16.33;;;13.55;;
65835;SDS011;52595;51.608;7.216;2023-06-22T03:10:56;18.80;;;14.05;;
65835;SDS011;52595;51.608;7.216;2023-06-22T03:13:22;18.92;;;12.98;;
65835;SDS011;52595;51.608;7.216;2023-06-22T03:15:48;15.70;;;13.65;;
65835;SDS011;52595;51.608;7.216;2023-06-22T03:18:13;15.60;;;13.60;;
65835;SDS011;52595;51.608;7.216;2023-06-22T03:20:38;15.20;;;12.88;;
65835;SDS011;52595;51.608;7.216;2023-06-22T03:23:04;18.08;;;13.70;;
65835;SDS011;52595;51.608;7.216;2023-06-22T03:25:30;17.10;;;13.93;;
65835;SDS011;52595;51.608;7.216;2023-06-22T03:27:55;17.38;;;14.52;;
65835;SDS011;52595;51.608;7.216;2023-06-22T03:30:20;19.02;;;14.23;;
65835;SDS011;52595;51.608;7.216;2023-06-22T03:32:46;20.08;;;14.90;;
65835;SDS011;52595;51.608;7.216;2023-06-22T03:35:12;18.52;;;15.38;;
65835;SDS011;52595;51.608;7.216;2023-06-22T03:37:38;17.55;;;15.45;;
65835;SDS011;52595;51.608;7.216;2023-06-22T03:40:04;22.00;;;15.85;;
65835;SDS011;52595;51.608;7.216;2023-06-22T03:42:30;22.15;;;14.85;;
65835;SDS011;52595;51.608;7.216;2023-06-22T03:44:56;19.05;;;15.38;;
65835;SDS011;52595;51.608;7.216;2023-06-22T03:47:22;18.60;;;14.50;;
65835;SDS011;52595;51.608;7.216;2023-06-22T03:49:47;17.00;;;13.98;;
65835;SDS011;52595;51.608;7.216;2023-06-22T03:52:13;17.13;;;15.30;;
65835;SDS011;52595;51.608;7.216;2023-06-22T03:54:38;18.00;;;15.15;;
65835;SDS011;52595;51.608;7.216;2023-06-22T03:57:05;16.98;;;14.60;;
65835;SDS011;52595;51.608;7.216;2023-06-22T03:59:31;17.17;;;14.00;;
65835;SDS011;52595;51.608;7.216;2023-06-22T04:01:57;19.67;;;15.45;;
65835;SDS011;52595;51.608;7.216;2023-06-22T04:04:22;17.40;;;14.32;;
65835;SDS011;52595;51.608;7.216;2023-06-22T04:06:48;20.48;;;15.07;;
65835;SDS011;52595;51.608;7.216;2023-06-22T04:09:13;16.00;;;13.25;;
65835;SDS011;52595;51.608;7.216;2023-06-22T04:11:39;16.52;;;13.80;;
65835;SDS011;52595;51.608;7.216;2023-06-22T04:14:04;17.73;;;14.93;;
65835;SDS011;52595;51.608;7.216;2023-06-22T04:16:29;16.70;;;14.30;;
65835;SDS011;52595;51.608;7.216;2023-06-22T04:18:55;18.35;;;14.82;;
65835;SDS011;52595;51.608;7.216;2023-06-22T04:21:20;19.70;;;14.07;;
65835;SDS011;52595;51.608;7.216;2023-06-22T04:23:46;19.17;;;14.80;;
65835;SDS011;52595;51.608;7.216;2023-06-22T04:26:12;17.65;;;14.23;;
65835;SDS011;52595;51.608;7.216;2023-06-22T04:28:39;17.20;;;14.38;;
65835;SDS011;52595;51.608;7.216;2023-06-22T04:31:05;17.85;;;14.15;;
65835;SDS011;52595;51.608;7.216;2023-06-22T04:33:30;17.80;;;14.15;;
65835;SDS011;52595;51.608;7.216;2023-06-22T04:35:56;15.75;;;13.70;;
65835;SDS011;52595;51.608;7.216;2023-06-22T04:38:22;18.27;;;14.05;;
65835;SDS011;52595;51.608;7.216;2023-06-22T04:40:49;16.98;;;13.90;;
65835;SDS011;52595;51.608;7.216;2023-06-22T04:43:15;18.58;;;13.50;;
65835;SDS011;52595;51.608;7.216;2023-06-22T04:45:40;17.42;;;13.30;;
65835;SDS011;52595;51.608;7.216;2023-06-22T04:48:06;19.65;;;14.05;;
65835;SDS011;52595;51.608;7.216;2023-06-22T04:50:31;17.98;;;13.90;;
65835;SDS011;52595;51.608;7.216;2023-06-22T04:52:57;18.33;;;13.98;;
65835;SDS011;52595;51.608;7.216;2023-06-22T04:55:23;17.50;;;13.68;;
65835;SDS011;52595;51.608;7.216;2023-06-22T04:57:50;17.98;;;13.40;;
65835;SDS011;52595;51.608;7.216;2023-06-22T05:00:17;15.35;;;12.52;;
65835;SDS011;52595;51.608;7.216;2023-06-22T05:02:47;15.55;;;13.25;;
65835;SDS011;52595;51.608;7.216;2023-06-22T05:05:14;16.90;;;13.85;;
65835;SDS011;52595;51.608;7.216;2023-06-22T05:07:44;16.05;;;13.15;;
65835;SDS011;52595;51.608;7.216;2023-06-22T05:10:12;18.25;;;13.75;;
65835;SDS011;52595;51.608;7.216;2023-06-22T05:12:38;15.88;;;12.93;;
65835;SDS011;52595;51.608;7.216;2023-06-22T05:15:05;16.27;;;12.75;;
65835;SDS011;52595;51.608;7.216;2023-06-22T05:17:31;15.38;;;13.60;;
65835;SDS011;52595;51.608;7.216;2023-06-22T05:19:57;16.48;;;13.55;;
65835;SDS011;52595;51.608;7.216;2023-06-22T05:22:22;20.40;;;13.82;;
65835;SDS011;52595;51.608;7.216;2023-06-22T05:24:47;18.48;;;13.32;;
65835;SDS011;52595;51.608;7.216;2023-06-22T05:27:13;15.77;;;12.80;;
65835;SDS011;52595;51.608;7.216;2023-06-22T05:29:39;17.17;;;13.48;;
65835;SDS011;52595;51.608;7.216;2023-06-22T05:32:05;15.95;;;13.30;;
65835;SDS011;52595;51.608;7.216;2023-06-22T05:34:31;16.67;;;12.88;;
65835;SDS011;52595;51.608;7.216;2023-06-22T05:36:57;17.98;;;14.13;;
65835;SDS011;52595;51.608;7.216;2023-06-22T05:39:24;19.77;;;14.40;;
65835;SDS011;52595;51.608;7.216;2023-06-22T05:41:50;16.38;;;13.60;;
65835;SDS011;52595;51.608;7.216;2023-06-22T05:44:16;16.63;;;14.32;;
65835;SDS011;52595;51.608;7.216;2023-06-22T05:46:43;15.23;;;12.77;;
65835;SDS011;52595;51.608;7.216;2023-06-22T05:49:13;16.58;;;14.48;;
65835;SDS011;52595;51.608;7.216;2023-06-22T05:51:39;19.08;;;14.73;;
65835;SDS011;52595;51.608;7.216;2023-06-22T05:54:05;17.25;;;12.70;;
65835;SDS011;52595;51.608;7.216;2023-06-22T05:56:30;17.65;;;14.68;;
65835;SDS011;52595;51.608;7.216;2023-06-22T05:58:56;16.88;;;13.82;;
65835;SDS011;52595;51.608;7.216;2023-06-22T06:01:21;17.77;;;14.88;;
65835;SDS011;52595;51.608;7.216;2023-06-22T06:03:47;17.52;;;15.10;;
65835;SDS011;52595;51.608;7.216;2023-06-22T06:06:14;18.23;;;14.65;;
65835;SDS011;52595;51.608;7.216;2023-06-22T06:08:40;17.67;;;13.70;;
65835;SDS011;52595;51.608;7.216;2023-06-22T06:11:06;18.58;;;15.23;;
65835;SDS011;52595;51.608;7.216;2023-06-22T06:13:31;24.23;;;14.25;;
65835;SDS011;52595;51.608;7.216;2023-06-22T06:15:56;15.95;;;12.45;;
65835;SDS011;52595;51.608;7.216;2023-06-22T06:18:22;17.83;;;14.00;;
65835;SDS011;52595;51.608;7.216;2023-06-22T06:20:48;20.20;;;15.18;;
65835;SDS011;52595;51.608;7.216;2023-06-22T06:23:13;20.15;;;14.73;;
65835;SDS011;52595;51.608;7.216;2023-06-22T06:25:39;16.92;;;13.32;;
65835;SDS011;52595;51.608;7.216;2023-06-22T06:28:04;15.05;;;12.32;;
65835;SDS011;52595;51.608;7.216;2023-06-22T06:30:30;16.17;;;13.50;;
65835;SDS011;52595;51.608;7.216;2023-06-22T06:32:56;17.40;;;13.20;;
65835;SDS011;52595;51.608;7.216;2023-06-22T06:35:21;18.00;;;13.25;;
65835;SDS011;52595;51.608;7.216;2023-06-22T06:37:47;15.68;;;13.43;;
65835;SDS011;52595;51.608;7.216;2023-06-22T06:40:14;19.38;;;14.05;;
65835;SDS011;52595;51.608;7.216;2023-06-22T06:42:42;17.90;;;14.45;;
65835;SDS011;52595;51.608;7.216;2023-06-22T06:45:14;18.48;;;13.18;;
65835;SDS011;52595;51.608;7.216;2023-06-22T06:47:41;15.00;;;13.32;;
65835;SDS011;52595;51.608;7.216;2023-06-22T06:50:07;18.45;;;14.57;;
65835;SDS011;52595;51.608;7.216;2023-06-22T06:52:33;17.38;;;14.63;;
65835;SDS011;52595;51.608;7.216;2023-06-22T06:54:58;17.80;;;14.70;;
65835;SDS011;52595;51.608;7.216;2023-06-22T06:57:24;20.90;;;15.27;;
65835;SDS011;52595;51.608;7.216;2023-06-22T06:59:53;17.30;;;14.80;;
65835;SDS011;52595;51.608;7.216;2023-06-22T07:02:22;20.52;;;14.10;;
65835;SDS011;52595;51.608;7.216;2023-06-22T07:04:48;16.90;;;14.23;;
65835;SDS011;52595;51.608;7.216;2023-06-22T07:07:14;18.25;;;14.65;;
65835;SDS011;52595;51.608;7.216;2023-06-22T07:09:39;20.98;;;14.20;;
65835;SDS011;52595;51.608;7.216;2023-06-22T07:12:05;19.23;;;14.40;;
65835;SDS011;52595;51.608;7.216;2023-06-22T07:14:30;16.63;;;14.82;;
65835;SDS011;52595;51.608;7.216;2023-06-22T07:16:57;16.80;;;14.00;;
65835;SDS011;52595;51.608;7.216;2023-06-22T07:19:25;20.65;;;14.05;;
65835;SDS011;52595;51.608;7.216;2023-06-22T07:21:52;18.70;;;14.93;;
65835;SDS011;52595;51.608;7.216;2023-06-22T07:24:18;18.25;;;14.38;;
65835;SDS011;52595;51.608;7.216;2023-06-22T07:26:47;15.65;;;13.57;;
65835;SDS011;52595;51.608;7.216;2023-06-22T07:29:14;18.20;;;13.93;;
65835;SDS011;52595;51.608;7.216;2023-06-22T07:31:41;17.50;;;14.52;;
65835;SDS011;52595;51.608;7.216;2023-06-22T07:34:07;18.90;;;13.57;;
65835;SDS011;52595;51.608;7.216;2023-06-22T07:36:32;18.77;;;13.65;;
65835;SDS011;52595;51.608;7.216;2023-06-22T07:39:00;16.63;;;13.77;;
65835;SDS011;52595;51.608;7.216;2023-06-22T07:41:26;17.90;;;14.73;;
65835;SDS011;52595;51.608;7.216;2023-06-22T07:43:51;18.73;;;14.18;;
65835;SDS011;52595;51.608;7.216;2023-06-22T07:46:16;15.63;;;13.70;;
65835;SDS011;52595;51.608;7.216;2023-06-22T07:48:42;16.45;;;13.82;;
65835;SDS011;52595;51.608;7.216;2023-06-22T07:51:09;16.23;;;13.30;;
65835;SDS011;52595;51.608;7.216;2023-06-22T07:53:36;17.73;;;13.18;;
65835;SDS011;52595;51.608;7.216;2023-06-22T07:56:01;16.50;;;13.82;;
65835;SDS011;52595;51.608;7.216;2023-06-22T07:58:31;16.58;;;13.60;;
65835;SDS011;52595;51.608;7.216;2023-06-22T08:00:57;16.08;;;13.10;;
65835;SDS011;52595;51.608;7.216;2023-06-22T08:03:22;15.02;;;13.43;;
65835;SDS011;52595;51.608;7.216;2023-06-22T08:05:48;17.42;;;13.50;;
65835;SDS011;52595;51.608;7.216;2023-06-22T08:08:14;17.95;;;14.85;;
65835;SDS011;52595;51.608;7.216;2023-06-22T08:10:39;17.33;;;14.82;;
65835;SDS011;52595;51.608;7.216;2023-06-22T08:13:06;17.17;;;14.68;;
65835;SDS011;52595;51.608;7.216;2023-06-22T08:15:31;22.08;;;14.70;;
65835;SDS011;52595;51.608;7.216;2023-06-22T08:17:56;16.13;;;13.90;;
65835;SDS011;52595;51.608;7.216;2023-06-22T08:20:23;17.17;;;13.98;;
65835;SDS011;52595;51.608;7.216;2023-06-22T08:22:48;18.40;;;14.70;;
65835;SDS011;52595;51.608;7.216;2023-06-22T08:25:14;18.02;;;13.93;;
65835;SDS011;52595;51.608;7.216;2023-06-22T08:27:39;19.35;;;16.08;;
65835;SDS011;52595;51.608;7.216;2023-06-22T08:30:06;17.13;;;14.73;;
65835;SDS011;52595;51.608;7.216;2023-06-22T08:32:32;19.98;;;16.08;;
65835;SDS011;52595;51.608;7.216;2023-06-22T08:34:57;17.52;;;15.73;;
65835;SDS011;52595;51.608;7.216;2023-06-22T08:37:23;19.45;;;16.83;;
65835;SDS011;52595;51.608;7.216;2023-06-22T08:39:50;20.75;;;15.25;;
65835;SDS011;52595;51.608;7.216;2023-06-22T08:42:15;18.25;;;15.18;;
65835;SDS011;52595;51.608;7.216;2023-06-22T08:44:41;17.98;;;15.02;;
65835;SDS011;52595;51.608;7.216;2023-06-22T08:47:06;17.05;;;15.25;;
65835;SDS011;52595;51.608;7.216;2023-06-22T08:49:32;18.60;;;15.50;;
65835;SDS011;52595;51.608;7.216;2023-06-22T08:51:57;23.50;;;15.35;;
65835;SDS011;52595;51.608;7.216;2023-06-22T08:54:22;18.00;;;15.38;;
65835;SDS011;52595;51.608;7.216;2023-06-22T08:56:48;18.67;;;14.73;;
65835;SDS011;52595;51.608;7.216;2023-06-22T08:59:13;17.92;;;14.85;;
65835;SDS011;52595;51.608;7.216;2023-06-22T09:01:39;15.50;;;13.82;;
65835;SDS011;52595;51.608;7.216;2023-06-22T09:04:04;18.80;;;15.43;;
65835;SDS011;52595;51.608;7.216;2023-06-22T09:06:31;15.90;;;14.20;;
65835;SDS011;52595;51.608;7.216;2023-06-22T09:08:57;17.58;;;14.85;;
65835;SDS011;52595;51.608;7.216;2023-06-22T09:11:24;21.38;;;15.95;;
65835;SDS011;52595;51.608;7.216;2023-06-22T09:13:50;17.15;;;15.35;;
65835;SDS011;52595;51.608;7.216;2023-06-22T09:16:17;16.27;;;14.20;;
65835;SDS011;52595;51.608;7.216;2023-06-22T09:18:42;17.20;;;14.57;;
65835;SDS011;52595;51.608;7.216;2023-06-22T09:21:08;15.52;;;13.93;;
65835;SDS011;52595;51.608;7.216;2023-06-22T09:23:33;18.00;;;14.70;;
65835;SDS011;52595;51.608;7.216;2023-06-22T09:25:59;17.60;;;14.15;;
65835;SDS011;52595;51.608;7.216;2023-06-22T09:28:24;16.00;;;13.95;;
65835;SDS011;52595;51.608;7.216;2023-06-22T09:30:50;17.05;;;13.50;;
65835;SDS011;52595;51.608;7.216;2023-06-22T09:33:16;15.05;;;13.45;;
65835;SDS011;52595;51.608;7.216;2023-06-22T09:35:41;15.88;;;12.88;;
65835;SDS011;52595;51.608;7.216;2023-06-22T09:38:06;15.27;;;13.68;;
65835;SDS011;52595;51.608;7.216;2023-06-22T09:40:32;16.40;;;13.63;;
65835;SDS011;52595;51.608;7.216;2023-06-22T09:43:04;15.23;;;12.45;;
65835;SDS011;52595;51.608;7.216;2023-06-22T09:45:30;13.75;;;11.48;;
65835;SDS011;52595;51.608;7.216;2023-06-22T09:47:55;14.82;;;12.70;;
65835;SDS011;52595;51.608;7.216;2023-06-22T09:50:21;13.32;;;11.93;;
65835;SDS011;52595;51.608;7.216;2023-06-22T09:52:46;13.77;;;11.20;;
65835;SDS011;52595;51.608;7.216;2023-06-22T09:55:15;15.27;;;10.95;;
65835;SDS011;52595;51.608;7.216;2023-06-22T09:57:41;12.25;;;11.05;;
65835;SDS011;52595;51.608;7.216;2023-06-22T10:00:06;13.75;;;11.23;;
65835;SDS011;52595;51.608;7.216;2023-06-22T10:02:38;15.55;;;11.30;;
65835;SDS011;52595;51.608;7.216;2023-06-22T10:05:03;12.00;;;10.07;;
65835;SDS011;52595;51.608;7.216;2023-06-22T10:07:29;14.10;;;11.98;;
65835;SDS011;52595;51.608;7.216;2023-06-22T10:09:54;14.25;;;12.57;;
65835;SDS011;52595;51.608;7.216;2023-06-22T10:12:19;13.43;;;11.63;;
65835;SDS011;52595;51.608;7.216;2023-06-22T10:14:45;14.38;;;11.70;;
65835;SDS011;52595;51.608;7.216;2023-06-22T10:17:10;17.98;;;12.15;;
65835;SDS011;52595;51.608;7.216;2023-06-22T10:19:36;15.57;;;12.02;;
65835;SDS011;52595;51.608;7.216;2023-06-22T10:22:02;13.38;;;11.55;;
65835;SDS011;52595;51.608;7.216;2023-06-22T10:24:29;14.05;;;11.55;;
65835;SDS011;52595;51.608;7.216;2023-06-22T10:26:54;14.73;;;11.38;;
65835;SDS011;52595;51.608;7.216;2023-06-22T10:29:20;15.15;;;11.93;;
65835;SDS011;52595;51.608;7.216;2023-06-22T10:31:45;13.88;;;11.40;;
65835;SDS011;52595;51.608;7.216;2023-06-22T10:34:11;12.35;;;10.60;;
65835;SDS011;52595;51.608;7.216;2023-06-22T10:36:36;12.40;;;11.10;;
65835;SDS011;52595;51.608;7.216;2023-06-22T10:39:03;13.95;;;12.13;;
65835;SDS011;52595;51.608;7.216;2023-06-22T10:41:29;13.60;;;10.85;;
65835;SDS011;52595;51.608;7.216;2023-06-22T10:43:55;15.45;;;11.38;;
65835;SDS011;52595;51.608;7.216;2023-06-22T10:46:21;13.20;;;11.63;;
65835;SDS011;52595;51.608;7.216;2023-06-22T10:48:46;14.10;;;10.60;;
65835;SDS011;52595;51.608;7.216;2023-06-22T10:51:12;13.15;;;11.27;;
65835;SDS011;52595;51.608;7.216;2023-06-22T10:53:37;14.20;;;11.73;;
65835;SDS011;52595;51.608;7.216;2023-06-22T10:56:02;14.02;;;11.10;;
65835;SDS011;52595;51.608;7.216;2023-06-22T10:58:28;13.77;;;11.35;;
65835;SDS011;52595;51.608;7.216;2023-06-22T11:00:53;14.60;;;12.63;;
65835;SDS011;52595;51.608;7.216;2023-06-22T11:03:19;15.90;;;12.48;;
65835;SDS011;52595;51.608;7.216;2023-06-22T11:05:44;16.58;;;12.45;;
65835;SDS011;52595;51.608;7.216;2023-06-22T11:08:11;14.55;;;12.50;;
65835;SDS011;52595;51.608;7.216;2023-06-22T11:10:36;14.52;;;11.38;;
65835;SDS011;52595;51.608;7.216;2023-06-22T11:13:01;15.50;;;12.93;;
65835;SDS011;52595;51.608;7.216;2023-06-22T11:15:29;13.50;;;12.10;;
65835;SDS011;52595;51.608;7.216;2023-06-22T11:17:54;16.33;;;12.25;;
65835;SDS011;52595;51.608;7.216;2023-06-22T11:20:19;15.60;;;13.48;;
65835;SDS011;52595;51.608;7.216;2023-06-22T11:22:45;17.73;;;13.23;;
65835;SDS011;52595;51.608;7.216;2023-06-22T11:25:10;15.68;;;13.00;;
65835;SDS011;52595;51.608;7.216;2023-06-22T11:27:37;13.93;;;11.80;;
65835;SDS011;52595;51.608;7.216;2023-06-22T11:30:02;15.45;;;13.85;;
65835;SDS011;52595;51.608;7.216;2023-06-22T11:32:28;17.45;;;13.82;;
65835;SDS011;52595;51.608;7.216;2023-06-22T11:34:54;15.50;;;12.93;;
65835;SDS011;52595;51.608;7.216;2023-06-22T11:37:19;15.45;;;13.20;;
65835;SDS011;52595;51.608;7.216;2023-06-22T11:39:45;17.38;;;13.68;;
65835;SDS011;52595;51.608;7.216;2023-06-22T11:42:10;17.13;;;14.13;;
65835;SDS011;52595;51.608;7.216;2023-06-22T11:44:36;17.20;;;15.30;;
65835;SDS011;52595;51.608;7.216;2023-06-22T11:47:01;19.45;;;17.30;;
65835;SDS011;52595;51.608;7.216;2023-06-22T11:49:28;18.80;;;16.30;;
65835;SDS011;52595;51.608;7.216;2023-06-22T11:51:54;20.42;;;16.75;;
65835;SDS011;52595;51.608;7.216;2023-06-22T11:54:20;21.00;;;18.08;;
65835;SDS011;52595;51.608;7.216;2023-06-22T11:56:45;24.58;;;18.55;;
65835;SDS011;52595;51.608;7.216;2023-06-22T11:59:11;21.27;;;18.13;;
65835;SDS011;52595;51.608;7.216;2023-06-22T12:01:36;22.95;;;18.65;;
65835;SDS011;52595;51.608;7.216;2023-06-22T12:04:02;25.05;;;20.58;;
65835;SDS011;52595;51.608;7.216;2023-06-22T12:06:30;27.60;;;22.13;;
65835;SDS011;52595;51.608;7.216;2023-06-22T12:08:57;28.30;;;22.98;;
65835;SDS011;52595;51.608;7.216;2023-06-22T12:11:22;28.50;;;23.55;;
65835;SDS011;52595;51.608;7.216;2023-06-22T12:13:47;27.33;;;23.48;;
65835;SDS011;52595;51.608;7.216;2023-06-22T12:16:13;31.40;;;26.40;;
65835;SDS011;52595;51.608;7.216;2023-06-22T12:18:38;32.28;;;26.75;;
65835;SDS011;52595;51.608;7.216;2023-06-22T12:21:03;37.95;;;28.17;;
65835;SDS011;52595;51.608;7.216;2023-06-22T12:23:29;38.35;;;28.77;;
65835;SDS011;52595;51.608;7.216;2023-06-22T12:25:54;41.13;;;30.10;;
65835;SDS011;52595;51.608;7.216;2023-06-22T12:28:20;41.17;;;30.83;;
65835;SDS011;52595;51.608;7.216;2023-06-22T12:30:45;43.05;;;31.27;;
65835;SDS011;52595;51.608;7.216;2023-06-22T12:33:10;42.08;;;31.35;;
65835;SDS011;52595;51.608;7.216;2023-06-22T12:35:36;40.42;;;30.42;;
65835;SDS011;52595;51.608;7.216;2023-06-22T12:38:01;41.90;;;31.35;;
65835;SDS011;52595;51.608;7.216;2023-06-22T12:40:27;43.17;;;32.78;;
65835;SDS011;52595;51.608;7.216;2023-06-22T12:42:53;44.72;;;32.05;;
65835;SDS011;52595;51.608;7.216;2023-06-22T12:45:18;45.55;;;33.78;;
65835;SDS011;52595;51.608;7.216;2023-06-22T12:47:46;43.85;;;32.67;;
65835;SDS011;52595;51.608;7.216;2023-06-22T12:50:11;41.58;;;32.88;;
65835;SDS011;52595;51.608;7.216;2023-06-22T12:52:37;43.45;;;31.83;;
65835;SDS011;52595;51.608;7.216;2023-06-22T12:55:06;40.97;;;30.17;;
65835;SDS011;52595;51.608;7.216;2023-06-22T12:57:32;41.38;;;31.13;;
65835;SDS011;52595;51.608;7.216;2023-06-22T12:59:57;39.63;;;29.73;;
65835;SDS011;52595;51.608;7.216;2023-06-22T13:02:25;40.13;;;30.98;;
65835;SDS011;52595;51.608;7.216;2023-06-22T13:04:50;41.75;;;32.20;;
65835;SDS011;52595;51.608;7.216;2023-06-22T13:07:16;37.60;;;30.15;;
65835;SDS011;52595;51.608;7.216;2023-06-22T13:09:41;39.67;;;29.40;;
65835;SDS011;52595;51.608;7.216;2023-06-22T13:12:07;36.28;;;30.10;;
65835;SDS011;52595;51.608;7.216;2023-06-22T13:14:33;38.00;;;30.15;;
65835;SDS011;52595;51.608;7.216;2023-06-22T13:16:58;40.17;;;29.45;;
65835;SDS011;52595;51.608;7.216;2023-06-22T13:19:23;33.78;;;27.85;;
65835;SDS011;52595;51.608;7.216;2023-06-22T13:21:49;33.33;;;28.63;;
65835;SDS011;52595;51.608;7.216;2023-06-22T13:24:14;38.00;;;29.90;;
65835;SDS011;52595;51.608;7.216;2023-06-22T13:26:41;37.55;;;29.80;;
65835;SDS011;52595;51.608;7.216;2023-06-22T13:29:07;41.70;;;31.30;;
65835;SDS011;52595;51.608;7.216;2023-06-22T13:31:32;42.70;;;31.15;;
65835;SDS011;52595;51.608;7.216;2023-06-22T13:33:58;43.90;;;33.20;;
65835;SDS011;52595;51.608;7.216;2023-06-22T13:36:25;42.78;;;32.05;;
65835;SDS011;52595;51.608;7.216;2023-06-22T13:38:51;43.97;;;32.95;;
65835;SDS011;52595;51.608;7.216;2023-06-22T13:41:16;45.60;;;33.03;;
65835;SDS011;52595;51.608;7.216;2023-06-22T13:43:42;42.00;;;32.40;;
65835;SDS011;52595;51.608;7.216;2023-06-22T13:46:07;42.17;;;31.42;;
65835;SDS011;52595;51.608;7.216;2023-06-22T13:48:33;38.50;;;30.77;;
65835;SDS011;52595;51.608;7.216;2023-06-22T13:50:59;39.30;;;30.55;;
65835;SDS011;52595;51.608;7.216;2023-06-22T13:53:24;40.70;;;31.00;;
65835;SDS011;52595;51.608;7.216;2023-06-22T13:55:51;37.15;;;29.08;;
65835;SDS011;52595;51.608;7.216;2023-06-22T13:58:16;38.13;;;30.10;;
65835;SDS011;52595;51.608;7.216;2023-06-22T14:00:44;34.97;;;27.00;;
65835;SDS011;52595;51.608;7.216;2023-06-22T14:03:14;36.92;;;27.23;;
65835;SDS011;52595;51.608;7.216;2023-06-22T14:05:41;35.80;;;26.38;;
65835;SDS011;52595;51.608;7.216;2023-06-22T14:08:07;32.40;;;24.65;;
65835;SDS011;52595;51.608;7.216;2023-06-22T14:10:32;30.27;;;23.83;;
65835;SDS011;52595;51.608;7.216;2023-06-22T14:12:58;29.13;;;23.92;;
65835;SDS011;52595;51.608;7.216;2023-06-22T14:15:25;31.05;;;24.02;;
65835;SDS011;52595;51.608;7.216;2023-06-22T14:17:50;27.63;;;22.83;;
65835;SDS011;52595;51.608;7.216;2023-06-22T14:20:16;30.05;;;23.13;;